sensor_id;sensor_type;location;lat;lon;timestamp;pressure;altitude;pressure_sealevel;temperature;humidity
82171;BME280;71755;48.038;14.346;2023-09-19T00:00:20;97091.72;;;16.98;89.43
82171;BME280;71755;48.038;14.346;2023-09-19T00:02:57;97093.03;;;17.01;89.22
82171;BME280;71755;48.038;14.346;2023-09-19T00:05:29;97090.69;;;17.13;88.60
82171;BME280;71755;48.038;14.346;2023-09-19T00:07:57;97090.38;;;17.14;88.26
82171;BME280;71755;48.038;14.346;2023-09-19T00:10:27;97091.94;;;17.02;88.40
82171;BME280;71755;48.038;14.346;2023-09-19T00:12:59;97085.53;;;16.98;89.04
82171;BME280;71755;48.038;14.346;2023-09-19T00:15:26;97083.13;;;16.96;88.39
82171;BME280;71755;48.038;14.346;2023-09-19T00:17:55;97089.31;;;16.97;88.36
82171;BME280;71755;48.038;14.346;2023-09-19T00:20:22;97085.72;;;16.87;88.73
82171;BME280;71755;48.038;14.346;2023-09-19T00:22:50;97084.53;;;16.94;88.85
82171;BME280;71755;48.038;14.346;2023-09-19T00:25:17;97082.94;;;16.93;88.62
82171;BME280;71755;48.038;14.346;2023-09-19T00:27:43;97072.31;;;16.82;88.74
82171;BME280;71755;48.038;14.346;2023-09-19T00:30:12;97077.00;;;16.77;89.11
82171;BME280;71755;48.038;14.346;2023-09-19T00:32:50;97069.13;;;16.80;88.63
82171;BME280;71755;48.038;14.346;2023-09-19T00:35:20;97079.88;;;16.48;90.28
82171;BME280;71755;48.038;14.346;2023-09-19T00:37:51;97082.81;;;16.65;89.81
82171;BME280;71755;48.038;14.346;2023-09-19T00:40:17;97083.75;;;16.42;89.92
82171;BME280;71755;48.038;14.346;2023-09-19T00:42:43;97084.66;;;16.51;89.79
82171;BME280;71755;48.038;14.346;2023-09-19T00:45:11;97097.97;;;16.61;90.06
82171;BME280;71755;48.038;14.346;2023-09-19T00:47:46;97102.22;;;16.67;89.62
82171;BME280;71755;48.038;14.346;2023-09-19T00:50:18;97098.28;;;16.78;89.27
82171;BME280;71755;48.038;14.346;2023-09-19T00:52:47;97109.09;;;16.78;89.18
82171;BME280;71755;48.038;14.346;2023-09-19T00:55:16;97104.28;;;16.75;89.49
82171;BME280;71755;48.038;14.346;2023-09-19T00:57:45;97104.47;;;16.79;89.42
82171;BME280;71755;48.038;14.346;2023-09-19T01:00:13;97102.09;;;16.77;88.95
82171;BME280;71755;48.038;14.346;2023-09-19T01:02:44;97109.66;;;16.56;88.39
82171;BME280;71755;48.038;14.346;2023-09-19T01:05:10;97107.53;;;16.53;85.99
82171;BME280;71755;48.038;14.346;2023-09-19T01:07:38;97104.63;;;16.50;85.81
82171;BME280;71755;48.038;14.346;2023-09-19T01:10:18;97112.00;;;16.44;85.05
82171;BME280;71755;48.038;14.346;2023-09-19T01:21:20;97114.19;;;16.42;82.51
82171;BME280;71755;48.038;14.346;2023-09-19T01:29:39;97111.09;;;15.92;88.00
82171;BME280;71755;48.038;14.346;2023-09-19T01:31:47;97116.91;;;15.81;89.36
82171;BME280;71755;48.038;14.346;2023-09-19T01:34:12;97109.69;;;15.76;90.81
82171;BME280;71755;48.038;14.346;2023-09-19T01:36:39;97113.19;;;15.77;90.29
82171;BME280;71755;48.038;14.346;2023-09-19T01:39:11;97110.22;;;15.78;91.07
82171;BME280;71755;48.038;14.346;2023-09-19T01:41:47;97110.50;;;15.77;91.17
82171;BME280;71755;48.038;14.346;2023-09-19T01:44:36;97094.91;;;15.74;92.03
82171;BME280;71755;48.038;14.346;2023-09-19T01:47:18;97096.31;;;15.71;92.80
82171;BME280;71755;48.038;14.346;2023-09-19T01:52:42;97100.59;;;15.72;91.72
82171;BME280;71755;48.038;14.346;2023-09-19T01:55:12;97100.09;;;15.70;92.06
82171;BME280;71755;48.038;14.346;2023-09-19T01:57:54;97090.47;;;15.64;92.44
82171;BME280;71755;48.038;14.346;2023-09-19T02:00:26;97084.03;;;15.60;92.68
82171;BME280;71755;48.038;14.346;2023-09-19T02:02:56;97084.84;;;15.60;92.58
82171;BME280;71755;48.038;14.346;2023-09-19T02:05:25;97079.72;;;15.59;92.23
82171;BME280;71755;48.038;14.346;2023-09-19T02:07:52;97066.28;;;15.59;92.15
82171;BME280;71755;48.038;14.346;2023-09-19T02:10:20;97047.13;;;15.60;90.85
82171;BME280;71755;48.038;14.346;2023-09-19T02:12:46;97054.09;;;15.67;88.91
82171;BME280;71755;48.038;14.346;2023-09-19T02:15:13;97056.72;;;15.72;88.20
82171;BME280;71755;48.038;14.346;2023-09-19T02:17:42;97056.41;;;15.73;86.93
82171;BME280;71755;48.038;14.346;2023-09-19T02:20:11;97058.53;;;15.76;87.59
82171;BME280;71755;48.038;14.346;2023-09-19T02:22:41;97060.06;;;15.63;90.07
82171;BME280;71755;48.038;14.346;2023-09-19T02:25:08;97055.91;;;15.47;91.98
82171;BME280;71755;48.038;14.346;2023-09-19T02:27:35;97054.19;;;15.32;92.90
82171;BME280;71755;48.038;14.346;2023-09-19T02:30:01;97059.06;;;15.30;94.97
82171;BME280;71755;48.038;14.346;2023-09-19T02:32:28;97058.03;;;15.26;95.58
82171;BME280;71755;48.038;14.346;2023-09-19T02:34:57;97059.28;;;15.34;94.33
82171;BME280;71755;48.038;14.346;2023-09-19T02:37:24;97055.50;;;15.35;94.49
82171;BME280;71755;48.038;14.346;2023-09-19T02:39:50;97065.69;;;15.38;94.15
82171;BME280;71755;48.038;14.346;2023-09-19T02:42:16;97070.28;;;15.38;93.58
82171;BME280;71755;48.038;14.346;2023-09-19T02:44:42;97072.16;;;15.37;92.28
82171;BME280;71755;48.038;14.346;2023-09-19T02:47:12;97069.94;;;15.44;91.03
82171;BME280;71755;48.038;14.346;2023-09-19T02:49:40;97069.94;;;15.44;90.07
82171;BME280;71755;48.038;14.346;2023-09-19T02:52:08;97073.94;;;15.47;89.96
82171;BME280;71755;48.038;14.346;2023-09-19T02:54:36;97079.09;;;15.43;90.44
82171;BME280;71755;48.038;14.346;2023-09-19T02:57:02;97088.50;;;15.46;89.88
82171;BME280;71755;48.038;14.346;2023-09-19T02:59:32;97083.69;;;15.43;90.47
82171;BME280;71755;48.038;14.346;2023-09-19T03:01:59;97086.72;;;15.36;90.43
82171;BME280;71755;48.038;14.346;2023-09-19T03:04:26;97081.84;;;15.38;90.60
82171;BME280;71755;48.038;14.346;2023-09-19T03:06:53;97075.66;;;15.38;89.15
82171;BME280;71755;48.038;14.346;2023-09-19T03:09:24;97074.00;;;15.42;88.81
82171;BME280;71755;48.038;14.346;2023-09-19T03:11:50;97089.81;;;15.48;88.82
82171;BME280;71755;48.038;14.346;2023-09-19T03:14:16;97088.13;;;15.52;88.46
82171;BME280;71755;48.038;14.346;2023-09-19T03:16:42;97095.34;;;15.57;88.08
82171;BME280;71755;48.038;14.346;2023-09-19T03:19:10;97105.25;;;15.67;88.21
82171;BME280;71755;48.038;14.346;2023-09-19T03:21:37;97113.13;;;15.58;89.54
82171;BME280;71755;48.038;14.346;2023-09-19T03:24:04;97124.69;;;15.58;90.04
82171;BME280;71755;48.038;14.346;2023-09-19T03:26:31;97118.53;;;15.58;90.41
82171;BME280;71755;48.038;14.346;2023-09-19T03:28:58;97127.38;;;15.63;89.05
82171;BME280;71755;48.038;14.346;2023-09-19T03:31:25;97128.97;;;15.65;88.82
82171;BME280;71755;48.038;14.346;2023-09-19T03:33:51;97123.00;;;15.68;89.15
82171;BME280;71755;48.038;14.346;2023-09-19T03:36:17;97129.53;;;15.56;89.29
82171;BME280;71755;48.038;14.346;2023-09-19T03:38:43;97124.97;;;15.62;89.38
82171;BME280;71755;48.038;14.346;2023-09-19T03:41:09;97123.53;;;15.70;89.53
82171;BME280;71755;48.038;14.346;2023-09-19T03:43:39;97120.47;;;15.76;89.67
82171;BME280;71755;48.038;14.346;2023-09-19T03:46:05;97118.88;;;15.75;88.86
82171;BME280;71755;48.038;14.346;2023-09-19T03:48:31;97115.66;;;15.73;89.11
82171;BME280;71755;48.038;14.346;2023-09-19T03:50:57;97115.88;;;15.77;88.19
82171;BME280;71755;48.038;14.346;2023-09-19T03:53:24;97109.69;;;15.76;88.28
82171;BME280;71755;48.038;14.346;2023-09-19T03:55:49;97104.31;;;15.76;88.29
82171;BME280;71755;48.038;14.346;2023-09-19T03:58:15;97099.84;;;15.67;88.30
82171;BME280;71755;48.038;14.346;2023-09-19T04:00:41;97113.94;;;15.58;89.21
82171;BME280;71755;48.038;14.346;2023-09-19T04:03:07;97110.97;;;15.60;88.70
82171;BME280;71755;48.038;14.346;2023-09-19T04:05:34;97116.09;;;15.61;89.12
82171;BME280;71755;48.038;14.346;2023-09-19T04:08:00;97108.88;;;15.52;89.36
82171;BME280;71755;48.038;14.346;2023-09-19T04:10:27;97118.84;;;15.27;90.65
82171;BME280;71755;48.038;14.346;2023-09-19T04:12:54;97118.41;;;15.15;91.56
82171;BME280;71755;48.038;14.346;2023-09-19T04:15:21;97120.91;;;15.07;92.34
82171;BME280;71755;48.038;14.346;2023-09-19T04:17:52;97134.38;;;15.07;92.72
82171;BME280;71755;48.038;14.346;2023-09-19T04:20:18;97133.22;;;15.13;92.54
82171;BME280;71755;48.038;14.346;2023-09-19T04:22:51;97127.78;;;15.18;92.35
82171;BME280;71755;48.038;14.346;2023-09-19T04:25:17;97136.44;;;15.15;91.82
82171;BME280;71755;48.038;14.346;2023-09-19T04:27:44;97137.47;;;15.19;91.79
82171;BME280;71755;48.038;14.346;2023-09-19T04:30:10;97129.97;;;15.16;91.64
82171;BME280;71755;48.038;14.346;2023-09-19T04:32:38;97134.59;;;15.10;92.55
82171;BME280;71755;48.038;14.346;2023-09-19T04:35:09;97129.91;;;15.21;92.48
82171;BME280;71755;48.038;14.346;2023-09-19T04:37:39;97141.63;;;15.35;92.19
82171;BME280;71755;48.038;14.346;2023-09-19T04:40:08;97142.16;;;15.37;91.06
82171;BME280;71755;48.038;14.346;2023-09-19T04:42:39;97144.66;;;15.28;91.53
82171;BME280;71755;48.038;14.346;2023-09-19T04:45:06;97146.78;;;15.31;91.10
82171;BME280;71755;48.038;14.346;2023-09-19T04:47:32;97144.94;;;15.27;91.56
82171;BME280;71755;48.038;14.346;2023-09-19T04:49:58;97153.03;;;15.27;91.57
82171;BME280;71755;48.038;14.346;2023-09-19T04:52:24;97150.66;;;15.20;91.62
82171;BME280;71755;48.038;14.346;2023-09-19T04:54:50;97157.63;;;15.21;91.91
82171;BME280;71755;48.038;14.346;2023-09-19T04:57:16;97155.22;;;15.20;92.40
82171;BME280;71755;48.038;14.346;2023-09-19T04:59:42;97153.38;;;15.15;92.31
82171;BME280;71755;48.038;14.346;2023-09-19T05:02:08;97166.56;;;15.17;92.33
82171;BME280;71755;48.038;14.346;2023-09-19T05:04:35;97165.97;;;15.20;92.33
82171;BME280;71755;48.038;14.346;2023-09-19T05:07:01;97167.50;;;15.31;91.85
82171;BME280;71755;48.038;14.346;2023-09-19T05:09:29;97189.09;;;15.26;92.09
82171;BME280;71755;48.038;14.346;2023-09-19T05:11:55;97184.53;;;15.21;92.21
82171;BME280;71755;48.038;14.346;2023-09-19T05:14:22;97187.78;;;15.18;92.54
82171;BME280;71755;48.038;14.346;2023-09-19T05:16:49;97186.94;;;15.23;92.69
82171;BME280;71755;48.038;14.346;2023-09-19T05:19:15;97186.88;;;15.33;92.41
82171;BME280;71755;48.038;14.346;2023-09-19T05:21:41;97190.59;;;15.37;92.35
82171;BME280;71755;48.038;14.346;2023-09-19T05:24:07;97189.91;;;15.26;92.16
82171;BME280;71755;48.038;14.346;2023-09-19T05:26:33;97193.22;;;15.13;93.30
82171;BME280;71755;48.038;14.346;2023-09-19T05:28:58;97198.09;;;15.11;93.13
82171;BME280;71755;48.038;14.346;2023-09-19T05:31:24;97198.13;;;15.06;93.75
82171;BME280;71755;48.038;14.346;2023-09-19T05:33:50;97204.84;;;15.09;93.35
82171;BME280;71755;48.038;14.346;2023-09-19T05:36:17;97205.91;;;15.08;93.60
82171;BME280;71755;48.038;14.346;2023-09-19T05:38:43;97208.03;;;15.11;93.50
82171;BME280;71755;48.038;14.346;2023-09-19T05:41:10;97213.72;;;15.09;93.80
82171;BME280;71755;48.038;14.346;2023-09-19T05:43:40;97210.44;;;15.12;93.77
82171;BME280;71755;48.038;14.346;2023-09-19T05:46:07;97222.28;;;15.11;93.62
82171;BME280;71755;48.038;14.346;2023-09-19T05:48:34;97228.47;;;15.12;93.45
82171;BME280;71755;48.038;14.346;2023-09-19T05:51:00;97230.66;;;15.10;94.15
82171;BME280;71755;48.038;14.346;2023-09-19T05:53:26;97243.59;;;15.08;94.23
82171;BME280;71755;48.038;14.346;2023-09-19T05:55:52;97248.97;;;15.08;93.94
82171;BME280;71755;48.038;14.346;2023-09-19T05:58:21;97246.41;;;15.26;91.47
82171;BME280;71755;48.038;14.346;2023-09-19T06:00:47;97253.22;;;15.48;89.51
82171;BME280;71755;48.038;14.346;2023-09-19T06:03:14;97253.91;;;15.63;88.17
82171;BME280;71755;48.038;14.346;2023-09-19T06:05:41;97258.09;;;15.75;86.62
82171;BME280;71755;48.038;14.346;2023-09-19T06:08:07;97250.53;;;15.77;87.24
82171;BME280;71755;48.038;14.346;2023-09-19T06:10:34;97258.00;;;15.85;85.81
82171;BME280;71755;48.038;14.346;2023-09-19T06:13:02;97262.25;;;15.91;85.43
82171;BME280;71755;48.038;14.346;2023-09-19T06:15:32;97260.63;;;15.90;86.51
82171;BME280;71755;48.038;14.346;2023-09-19T06:17:59;97263.03;;;15.91;85.42
82171;BME280;71755;48.038;14.346;2023-09-19T06:20:26;97271.41;;;15.90;86.31
82171;BME280;71755;48.038;14.346;2023-09-19T06:22:53;97270.31;;;15.91;85.87
82171;BME280;71755;48.038;14.346;2023-09-19T06:25:19;97261.66;;;15.94;85.69
82171;BME280;71755;48.038;14.346;2023-09-19T06:27:49;97274.34;;;15.93;85.93
82171;BME280;71755;48.038;14.346;2023-09-19T06:30:17;97272.66;;;15.98;85.62
82171;BME280;71755;48.038;14.346;2023-09-19T06:32:44;97277.81;;;15.99;85.87
82171;BME280;71755;48.038;14.346;2023-09-19T06:35:14;97275.66;;;15.96;85.50
82171;BME280;71755;48.038;14.346;2023-09-19T06:37:43;97273.47;;;15.98;86.49
82171;BME280;71755;48.038;14.346;2023-09-19T06:40:13;97278.88;;;15.98;85.79
82171;BME280;71755;48.038;14.346;2023-09-19T06:42:47;97290.69;;;16.02;85.96
82171;BME280;71755;48.038;14.346;2023-09-19T06:45:15;97283.94;;;16.05;85.08
82171;BME280;71755;48.038;14.346;2023-09-19T06:47:50;97285.53;;;16.06;85.95
82171;BME280;71755;48.038;14.346;2023-09-19T06:50:20;97284.16;;;16.08;85.72
82171;BME280;71755;48.038;14.346;2023-09-19T06:52:53;97283.59;;;16.11;84.97
82171;BME280;71755;48.038;14.346;2023-09-19T06:55:22;97284.56;;;16.20;85.14
82171;BME280;71755;48.038;14.346;2023-09-19T06:57:54;97285.19;;;16.36;84.35
82171;BME280;71755;48.038;14.346;2023-09-19T07:00:20;97289.72;;;16.41;84.90
82171;BME280;71755;48.038;14.346;2023-09-19T07:05:23;97296.00;;;16.55;83.88
82171;BME280;71755;48.038;14.346;2023-09-19T07:07:48;97291.03;;;16.67;83.07
82171;BME280;71755;48.038;14.346;2023-09-19T07:10:15;97302.28;;;16.74;81.31
82171;BME280;71755;48.038;14.346;2023-09-19T07:12:41;97305.94;;;16.83;82.38
82171;BME280;71755;48.038;14.346;2023-09-19T07:15:08;97305.34;;;16.86;83.55
82171;BME280;71755;48.038;14.346;2023-09-19T07:17:34;97306.72;;;16.84;83.09
82171;BME280;71755;48.038;14.346;2023-09-19T07:20:00;97310.22;;;16.84;81.89
82171;BME280;71755;48.038;14.346;2023-09-19T07:22:27;97323.13;;;16.87;82.71
82171;BME280;71755;48.038;14.346;2023-09-19T07:24:53;97319.63;;;16.87;81.42
82171;BME280;71755;48.038;14.346;2023-09-19T07:27:21;97329.84;;;16.90;80.55
82171;BME280;71755;48.038;14.346;2023-09-19T07:29:47;97325.53;;;16.89;81.18
82171;BME280;71755;48.038;14.346;2023-09-19T07:32:13;97336.56;;;16.93;81.08
82171;BME280;71755;48.038;14.346;2023-09-19T07:34:43;97335.75;;;16.92;81.28
82171;BME280;71755;48.038;14.346;2023-09-19T07:37:10;97338.38;;;16.97;81.80
82171;BME280;71755;48.038;14.346;2023-09-19T07:39:36;97348.88;;;16.99;80.80
82171;BME280;71755;48.038;14.346;2023-09-19T07:42:02;97348.81;;;17.04;80.14
82171;BME280;71755;48.038;14.346;2023-09-19T07:44:28;97347.44;;;17.06;80.25
82171;BME280;71755;48.038;14.346;2023-09-19T07:46:54;97346.59;;;17.11;80.86
82171;BME280;71755;48.038;14.346;2023-09-19T07:49:20;97352.50;;;17.13;79.60
82171;BME280;71755;48.038;14.346;2023-09-19T07:51:47;97348.41;;;17.15;80.29
82171;BME280;71755;48.038;14.346;2023-09-19T07:54:13;97355.41;;;17.16;80.09
82171;BME280;71755;48.038;14.346;2023-09-19T07:56:41;97358.09;;;17.16;78.92
82171;BME280;71755;48.038;14.346;2023-09-19T07:59:07;97357.81;;;17.18;79.87
82171;BME280;71755;48.038;14.346;2023-09-19T08:01:33;97356.13;;;17.22;79.12
82171;BME280;71755;48.038;14.346;2023-09-19T08:04:01;97367.38;;;17.29;79.16
82171;BME280;71755;48.038;14.346;2023-09-19T08:06:26;97356.19;;;17.36;76.76
82171;BME280;71755;48.038;14.346;2023-09-19T08:08:55;97374.00;;;17.37;77.34
82171;BME280;71755;48.038;14.346;2023-09-19T08:11:22;97370.50;;;17.36;77.30
82171;BME280;71755;48.038;14.346;2023-09-19T08:13:50;97376.19;;;17.35;76.95
82171;BME280;71755;48.038;14.346;2023-09-19T08:16:16;97376.31;;;17.43;75.27
82171;BME280;71755;48.038;14.346;2023-09-19T08:18:48;97384.09;;;17.50;76.26
82171;BME280;71755;48.038;14.346;2023-09-19T08:21:18;97379.50;;;17.50;75.45
82171;BME280;71755;48.038;14.346;2023-09-19T08:23:44;97388.09;;;17.53;75.58
82171;BME280;71755;48.038;14.346;2023-09-19T08:26:11;97379.50;;;17.50;75.87
82171;BME280;71755;48.038;14.346;2023-09-19T08:28:37;97379.50;;;17.50;76.14
82171;BME280;71755;48.038;14.346;2023-09-19T08:31:07;97382.69;;;17.53;76.04
82171;BME280;71755;48.038;14.346;2023-09-19T08:33:36;97379.31;;;17.61;74.81
82171;BME280;71755;48.038;14.346;2023-09-19T08:36:05;97387.34;;;17.66;74.54
82171;BME280;71755;48.038;14.346;2023-09-19T08:38:35;97387.88;;;17.68;75.21
82171;BME280;71755;48.038;14.346;2023-09-19T08:41:06;97386.28;;;17.67;76.16
82171;BME280;71755;48.038;14.346;2023-09-19T08:43:34;97392.75;;;17.66;75.30
82171;BME280;71755;48.038;14.346;2023-09-19T08:46:11;97372.69;;;17.72;75.19
82171;BME280;71755;48.038;14.346;2023-09-19T08:48:47;97388.31;;;17.75;74.21
82171;BME280;71755;48.038;14.346;2023-09-19T08:51:27;97396.63;;;17.78;75.82
82171;BME280;71755;48.038;14.346;2023-09-19T08:54:06;97391.00;;;17.75;73.29
82171;BME280;71755;48.038;14.346;2023-09-19T08:56:33;97386.69;;;17.74;74.55
82171;BME280;71755;48.038;14.346;2023-09-19T08:59:05;97385.31;;;17.76;75.10
82171;BME280;71755;48.038;14.346;2023-09-19T09:01:33;97393.13;;;17.78;75.18
82171;BME280;71755;48.038;14.346;2023-09-19T09:04:01;97392.53;;;17.81;75.33
82171;BME280;71755;48.038;14.346;2023-09-19T09:06:29;97397.63;;;17.83;74.01
82171;BME280;71755;48.038;14.346;2023-09-19T09:08:55;97400.34;;;17.83;73.13
82171;BME280;71755;48.038;14.346;2023-09-19T09:11:22;97397.94;;;17.81;75.16
82171;BME280;71755;48.038;14.346;2023-09-19T09:13:50;97395.81;;;17.78;74.99
82171;BME280;71755;48.038;14.346;2023-09-19T09:16:16;97406.03;;;17.81;73.43
82171;BME280;71755;48.038;14.346;2023-09-19T09:18:46;97403.84;;;17.83;75.52
82171;BME280;71755;48.038;14.346;2023-09-19T09:21:18;97404.38;;;17.85;73.21
82171;BME280;71755;48.038;14.346;2023-09-19T09:23:50;97403.28;;;17.86;77.55
82171;BME280;71755;48.038;14.346;2023-09-19T09:26:45;97393.47;;;17.90;74.97
82171;BME280;71755;48.038;14.346;2023-09-19T09:29:13;97399.91;;;17.94;75.15
82171;BME280;71755;48.038;14.346;2023-09-19T09:31:39;97402.31;;;17.96;75.24
82171;BME280;71755;48.038;14.346;2023-09-19T09:34:08;97400.91;;;17.98;75.45
82171;BME280;71755;48.038;14.346;2023-09-19T09:36:37;97401.31;;;18.05;74.18
82171;BME280;71755;48.038;14.346;2023-09-19T09:39:04;97394.72;;;18.11;75.36
82171;BME280;71755;48.038;14.346;2023-09-19T09:41:50;97400.25;;;18.20;74.61
82171;BME280;71755;48.038;14.346;2023-09-19T09:44:17;97405.91;;;18.24;74.77
82171;BME280;71755;48.038;14.346;2023-09-19T09:46:46;97394.38;;;18.32;73.94
82171;BME280;71755;48.038;14.346;2023-09-19T09:49:24;97392.09;;;18.39;76.67
82171;BME280;71755;48.038;14.346;2023-09-19T09:52:03;97397.41;;;18.44;75.33
82171;BME280;71755;48.038;14.346;2023-09-19T09:54:34;97405.63;;;18.39;73.10
82171;BME280;71755;48.038;14.346;2023-09-19T09:57:05;97403.22;;;18.37;74.61
82171;BME280;71755;48.038;14.346;2023-09-19T09:59:52;97406.22;;;18.36;76.52
82171;BME280;71755;48.038;14.346;2023-09-19T10:02:30;97415.31;;;18.40;74.10
82171;BME280;71755;48.038;14.346;2023-09-19T10:05:19;97409.03;;;18.58;74.29
82171;BME280;71755;48.038;14.346;2023-09-19T10:07:55;97406.84;;;18.60;74.89
82171;BME280;71755;48.038;14.346;2023-09-19T10:10:38;97410.03;;;18.49;75.82
82171;BME280;71755;48.038;14.346;2023-09-19T10:13:08;97415.81;;;18.28;74.68
82171;BME280;71755;48.038;14.346;2023-09-19T10:15:39;97417.16;;;18.12;76.74
82171;BME280;71755;48.038;14.346;2023-09-19T10:18:12;97420.75;;;18.07;76.96
82171;BME280;71755;48.038;14.346;2023-09-19T10:20:47;97420.75;;;18.07;77.92
82171;BME280;71755;48.038;14.346;2023-09-19T10:23:20;97417.94;;;17.99;77.98
82171;BME280;71755;48.038;14.346;2023-09-19T10:25:52;97418.81;;;17.94;79.18
82171;BME280;71755;48.038;14.346;2023-09-19T10:28:20;97420.06;;;17.83;79.60
82171;BME280;71755;48.038;14.346;2023-09-19T10:30:51;97418.16;;;17.84;80.47
82171;BME280;71755;48.038;14.346;2023-09-19T10:33:20;97420.22;;;17.73;80.67
82171;BME280;71755;48.038;14.346;2023-09-19T10:35:51;97421.09;;;17.87;81.41
82171;BME280;71755;48.038;14.346;2023-09-19T10:38:23;97414.91;;;17.87;82.21
82171;BME280;71755;48.038;14.346;2023-09-19T10:40:55;97410.34;;;17.82;80.28
82171;BME280;71755;48.038;14.346;2023-09-19T10:43:30;97402.59;;;17.94;80.36
82171;BME280;71755;48.038;14.346;2023-09-19T10:46:01;97398.59;;;18.24;81.31
82171;BME280;71755;48.038;14.346;2023-09-19T10:48:30;97402.88;;;18.71;81.49
82171;BME280;71755;48.038;14.346;2023-09-19T10:51:07;97398.94;;;18.91;77.41
82171;BME280;71755;48.038;14.346;2023-09-19T10:56:31;97403.50;;;19.32;74.80
82171;BME280;71755;48.038;14.346;2023-09-19T10:59:12;97404.56;;;19.09;76.17
82171;BME280;71755;48.038;14.346;2023-09-19T11:01:49;97407.78;;;18.69;76.26
82171;BME280;71755;48.038;14.346;2023-09-19T11:07:11;97415.63;;;18.38;77.53
82171;BME280;71755;48.038;14.346;2023-09-19T11:09:55;97417.28;;;18.21;78.55
82171;BME280;71755;48.038;14.346;2023-09-19T11:15:07;97393.38;;;18.28;81.12
82171;BME280;71755;48.038;14.346;2023-09-19T11:25:49;97393.63;;;18.86;79.94
82171;BME280;71755;48.038;14.346;2023-09-19T11:30:48;97398.44;;;19.03;80.72
82171;BME280;71755;48.038;14.346;2023-09-19T11:33:31;97407.88;;;18.78;77.56
82171;BME280;71755;48.038;14.346;2023-09-19T11:36:09;97419.75;;;18.50;79.88
82171;BME280;71755;48.038;14.346;2023-09-19T11:43:46;97427.06;;;18.03;86.73
82171;BME280;71755;48.038;14.346;2023-09-19T11:46:13;97423.63;;;17.97;86.57
82171;BME280;71755;48.038;14.346;2023-09-19T11:48:43;97417.31;;;17.88;84.51
82171;BME280;71755;48.038;14.346;2023-09-19T11:51:15;97405.53;;;17.79;85.72
82171;BME280;71755;48.038;14.346;2023-09-19T11:53:51;97406.28;;;17.85;86.53
82171;BME280;71755;48.038;14.346;2023-09-19T11:56:20;97400.00;;;17.89;84.63
82171;BME280;71755;48.038;14.346;2023-09-19T11:58:51;97398.13;;;18.03;83.87
82171;BME280;71755;48.038;14.346;2023-09-19T12:01:25;97394.84;;;18.20;83.65
82171;BME280;71755;48.038;14.346;2023-09-19T12:03:56;97392.88;;;18.39;83.35
82171;BME280;71755;48.038;14.346;2023-09-19T12:06:25;97391.78;;;18.40;82.46
82171;BME280;71755;48.038;14.346;2023-09-19T12:08:52;97386.97;;;18.37;82.76
82171;BME280;71755;48.038;14.346;2023-09-19T12:11:23;97393.38;;;18.41;82.21
82171;BME280;71755;48.038;14.346;2023-09-19T12:13:51;97392.47;;;18.32;82.52
82171;BME280;71755;48.038;14.346;2023-09-19T12:16:22;97408.16;;;18.17;83.97
82171;BME280;71755;48.038;14.346;2023-09-19T12:18:49;97418.00;;;17.94;87.45
82171;BME280;71755;48.038;14.346;2023-09-19T12:21:42;97392.28;;;17.96;88.32
82171;BME280;71755;48.038;14.346;2023-09-19T12:24:12;97390.59;;;18.00;87.34
82171;BME280;71755;48.038;14.346;2023-09-19T12:26:45;97391.22;;;18.11;83.92
82171;BME280;71755;48.038;14.346;2023-09-19T12:29:15;97386.56;;;18.30;83.29
82171;BME280;71755;48.038;14.346;2023-09-19T12:31:54;97391.28;;;18.52;83.42
82171;BME280;71755;48.038;14.346;2023-09-19T12:34:25;97391.78;;;18.54;84.07
82171;BME280;71755;48.038;14.346;2023-09-19T12:37:13;97400.81;;;18.50;84.74
82171;BME280;71755;48.038;14.346;2023-09-19T12:40:08;97396.09;;;18.55;84.49
82171;BME280;71755;48.038;14.346;2023-09-19T12:42:47;97390.84;;;18.64;84.09
82171;BME280;71755;48.038;14.346;2023-09-19T12:45:15;97382.91;;;18.81;84.36
82171;BME280;71755;48.038;14.346;2023-09-19T12:48:17;97387.97;;;19.38;83.37
82171;BME280;71755;48.038;14.346;2023-09-19T12:51:06;97385.94;;;19.29;80.62
82171;BME280;71755;48.038;14.346;2023-09-19T12:53:42;97377.75;;;19.34;79.19
82171;BME280;71755;48.038;14.346;2023-09-19T12:56:10;97372.63;;;19.33;78.63
82171;BME280;71755;48.038;14.346;2023-09-19T12:58:54;97383.47;;;19.33;77.67
82171;BME280;71755;48.038;14.346;2023-09-19T13:01:24;97374.44;;;19.24;77.08
82171;BME280;71755;48.038;14.346;2023-09-19T13:04:31;97361.47;;;19.34;77.55
82171;BME280;71755;48.038;14.346;2023-09-19T13:07:00;97367.56;;;19.54;77.07
82171;BME280;71755;48.038;14.346;2023-09-19T13:09:31;97360.63;;;19.48;76.93
82171;BME280;71755;48.038;14.346;2023-09-19T13:12:00;97359.84;;;19.47;75.00
82171;BME280;71755;48.038;14.346;2023-09-19T13:14:29;97356.31;;;19.83;78.16
82171;BME280;71755;48.038;14.346;2023-09-19T13:17:06;97347.00;;;20.59;75.09
82171;BME280;71755;48.038;14.346;2023-09-19T13:19:47;97344.31;;;21.34;72.97
82171;BME280;71755;48.038;14.346;2023-09-19T13:22:45;97335.03;;;21.35;70.68
82171;BME280;71755;48.038;14.346;2023-09-19T13:25:18;97338.84;;;21.68;70.51
82171;BME280;71755;48.038;14.346;2023-09-19T13:27:56;97335.94;;;21.91;70.52
82171;BME280;71755;48.038;14.346;2023-09-19T13:30:24;97338.06;;;21.33;66.69
82171;BME280;71755;48.038;14.346;2023-09-19T13:32:52;97334.06;;;21.65;68.11
82171;BME280;71755;48.038;14.346;2023-09-19T13:35:19;97329.59;;;21.69;70.29
82171;BME280;71755;48.038;14.346;2023-09-19T13:37:46;97327.78;;;21.82;67.66
82171;BME280;71755;48.038;14.346;2023-09-19T13:40:17;97326.31;;;22.10;71.16
82171;BME280;71755;48.038;14.346;2023-09-19T13:42:43;97325.19;;;22.58;69.83
82171;BME280;71755;48.038;14.346;2023-09-19T13:45:09;97322.91;;;22.69;66.20
82171;BME280;71755;48.038;14.346;2023-09-19T13:47:38;97322.25;;;22.72;62.11